sensor_id;sensor_type;location;lat;lon;timestamp;P1;durP1;ratioP1;P2;durP2;ratioP2
870;SDS011;422;51.280;7.236;2022-08-19T00:01:30;18.30;;;16.50;;
870;SDS011;422;51.280;7.236;2022-08-19T00:04:06;18.40;;;16.90;;
870;SDS011;422;51.280;7.236;2022-08-19T00:06:37;18.67;;;16.97;;
870;SDS011;422;51.280;7.236;2022-08-19T00:09:05;19.83;;;17.87;;
870;SDS011;422;51.280;7.236;2022-08-19T00:11:34;19.53;;;17.63;;
870;SDS011;422;51.280;7.236;2022-08-19T00:14:03;18.50;;;16.73;;
870;SDS011;422;51.280;7.236;2022-08-19T00:16:32;18.30;;;16.50;;
870;SDS011;422;51.280;7.236;2022-08-19T00:18:59;18.10;;;16.20;;
870;SDS011;422;51.280;7.236;2022-08-19T00:21:28;17.37;;;15.87;;
870;SDS011;422;51.280;7.236;2022-08-19T00:23:55;19.17;;;17.37;;
870;SDS011;422;51.280;7.236;2022-08-19T00:26:24;17.90;;;16.20;;
870;SDS011;422;51.280;7.236;2022-08-19T00:28:51;19.60;;;17.60;;
870;SDS011;422;51.280;7.236;2022-08-19T00:31:18;17.70;;;16.17;;
870;SDS011;422;51.280;7.236;2022-08-19T00:33:45;19.07;;;17.07;;
870;SDS011;422;51.280;7.236;2022-08-19T00:36:14;17.03;;;15.50;;
870;SDS011;422;51.280;7.236;2022-08-19T00:38:45;17.33;;;15.73;;
870;SDS011;422;51.280;7.236;2022-08-19T00:41:17;18.80;;;16.97;;
870;SDS011;422;51.280;7.236;2022-08-19T00:43:56;18.03;;;16.37;;
870;SDS011;422;51.280;7.236;2022-08-19T00:46:24;17.27;;;15.57;;
870;SDS011;422;51.280;7.236;2022-08-19T00:48:51;19.17;;;17.47;;
870;SDS011;422;51.280;7.236;2022-08-19T00:51:18;19.03;;;17.30;;
870;SDS011;422;51.280;7.236;2022-08-19T00:53:50;19.47;;;17.67;;
870;SDS011;422;51.280;7.236;2022-08-19T00:56:17;18.93;;;17.17;;
870;SDS011;422;51.280;7.236;2022-08-19T00:58:47;19.23;;;17.23;;
870;SDS011;422;51.280;7.236;2022-08-19T01:01:17;19.33;;;17.50;;
870;SDS011;422;51.280;7.236;2022-08-19T01:03:44;19.00;;;17.40;;
870;SDS011;422;51.280;7.236;2022-08-19T01:06:14;18.53;;;16.80;;
870;SDS011;422;51.280;7.236;2022-08-19T01:08:45;17.47;;;15.77;;
870;SDS011;422;51.280;7.236;2022-08-19T01:11:14;18.23;;;16.40;;
870;SDS011;422;51.280;7.236;2022-08-19T01:13:41;18.67;;;16.90;;
870;SDS011;422;51.280;7.236;2022-08-19T01:16:09;18.40;;;16.77;;
870;SDS011;422;51.280;7.236;2022-08-19T01:18:39;19.00;;;17.00;;
870;SDS011;422;51.280;7.236;2022-08-19T01:21:09;19.70;;;16.90;;
870;SDS011;422;51.280;7.236;2022-08-19T01:23:44;18.13;;;16.40;;
870;SDS011;422;51.280;7.236;2022-08-19T01:26:16;17.23;;;15.73;;
870;SDS011;422;51.280;7.236;2022-08-19T01:28:46;17.47;;;15.73;;
870;SDS011;422;51.280;7.236;2022-08-19T01:31:17;16.00;;;14.60;;
870;SDS011;422;51.280;7.236;2022-08-19T01:33:47;17.20;;;15.57;;
870;SDS011;422;51.280;7.236;2022-08-19T01:36:16;17.40;;;15.70;;
870;SDS011;422;51.280;7.236;2022-08-19T01:38:52;17.23;;;15.73;;
870;SDS011;422;51.280;7.236;2022-08-19T01:41:19;17.30;;;15.60;;
870;SDS011;422;51.280;7.236;2022-08-19T01:43:48;17.30;;;15.80;;
870;SDS011;422;51.280;7.236;2022-08-19T01:46:16;18.60;;;17.00;;
870;SDS011;422;51.280;7.236;2022-08-19T01:48:44;17.63;;;15.80;;
870;SDS011;422;51.280;7.236;2022-08-19T01:51:13;18.70;;;17.10;;
870;SDS011;422;51.280;7.236;2022-08-19T01:53:42;19.40;;;16.53;;
870;SDS011;422;51.280;7.236;2022-08-19T01:56:10;17.83;;;16.23;;
870;SDS011;422;51.280;7.236;2022-08-19T01:58:41;18.50;;;16.80;;
870;SDS011;422;51.280;7.236;2022-08-19T02:01:13;18.30;;;16.57;;
870;SDS011;422;51.280;7.236;2022-08-19T02:03:41;18.30;;;16.57;;
870;SDS011;422;51.280;7.236;2022-08-19T02:06:08;19.03;;;17.23;;
870;SDS011;422;51.280;7.236;2022-08-19T02:08:36;18.93;;;17.17;;
870;SDS011;422;51.280;7.236;2022-08-19T02:11:04;17.80;;;16.20;;
870;SDS011;422;51.280;7.236;2022-08-19T02:13:35;17.57;;;15.87;;
870;SDS011;422;51.280;7.236;2022-08-19T02:16:02;18.83;;;17.23;;
870;SDS011;422;51.280;7.236;2022-08-19T02:18:29;17.37;;;15.70;;
870;SDS011;422;51.280;7.236;2022-08-19T02:20:56;18.20;;;16.40;;
870;SDS011;422;51.280;7.236;2022-08-19T02:23:24;20.37;;;18.30;;
870;SDS011;422;51.280;7.236;2022-08-19T02:25:52;21.20;;;19.30;;
870;SDS011;422;51.280;7.236;2022-08-19T02:28:24;22.60;;;20.60;;
870;SDS011;422;51.280;7.236;2022-08-19T02:30:53;20.60;;;18.77;;
870;SDS011;422;51.280;7.236;2022-08-19T02:33:25;19.83;;;18.03;;
870;SDS011;422;51.280;7.236;2022-08-19T02:35:53;20.97;;;18.97;;
870;SDS011;422;51.280;7.236;2022-08-19T02:38:20;19.83;;;18.03;;
870;SDS011;422;51.280;7.236;2022-08-19T02:40:53;20.23;;;18.43;;
870;SDS011;422;51.280;7.236;2022-08-19T02:43:22;20.13;;;18.23;;
870;SDS011;422;51.280;7.236;2022-08-19T02:45:55;19.60;;;17.80;;
870;SDS011;422;51.280;7.236;2022-08-19T02:48:22;19.80;;;17.83;;
870;SDS011;422;51.280;7.236;2022-08-19T02:50:53;18.90;;;17.10;;
870;SDS011;422;51.280;7.236;2022-08-19T02:53:21;19.07;;;17.27;;
870;SDS011;422;51.280;7.236;2022-08-19T02:55:50;17.40;;;15.87;;
870;SDS011;422;51.280;7.236;2022-08-19T02:58:17;18.47;;;16.67;;
870;SDS011;422;51.280;7.236;2022-08-19T03:00:46;17.70;;;16.10;;
870;SDS011;422;51.280;7.236;2022-08-19T03:03:16;18.20;;;16.50;;
870;SDS011;422;51.280;7.236;2022-08-19T03:05:47;19.13;;;17.33;;
870;SDS011;422;51.280;7.236;2022-08-19T03:08:14;19.87;;;17.87;;
870;SDS011;422;51.280;7.236;2022-08-19T03:10:43;20.07;;;18.00;;
870;SDS011;422;51.280;7.236;2022-08-19T03:13:12;18.63;;;16.97;;
870;SDS011;422;51.280;7.236;2022-08-19T03:15:41;20.50;;;18.50;;
870;SDS011;422;51.280;7.236;2022-08-19T03:18:09;19.07;;;17.07;;
870;SDS011;422;51.280;7.236;2022-08-19T03:20:42;18.23;;;16.53;;
870;SDS011;422;51.280;7.236;2022-08-19T03:23:10;17.70;;;16.00;;
870;SDS011;422;51.280;7.236;2022-08-19T03:25:39;18.80;;;17.00;;
870;SDS011;422;51.280;7.236;2022-08-19T03:28:08;18.63;;;16.83;;
870;SDS011;422;51.280;7.236;2022-08-19T03:30:37;18.63;;;16.90;;
870;SDS011;422;51.280;7.236;2022-08-19T03:33:09;18.33;;;16.53;;
870;SDS011;422;51.280;7.236;2022-08-19T03:35:37;17.40;;;15.80;;
870;SDS011;422;51.280;7.236;2022-08-19T03:38:07;18.53;;;16.83;;
870;SDS011;422;51.280;7.236;2022-08-19T03:40:37;19.63;;;17.73;;
870;SDS011;422;51.280;7.236;2022-08-19T03:43:06;18.83;;;17.13;;
870;SDS011;422;51.280;7.236;2022-08-19T03:45:33;20.80;;;18.77;;
870;SDS011;422;51.280;7.236;2022-08-19T03:48:01;19.97;;;18.07;;
870;SDS011;422;51.280;7.236;2022-08-19T03:50:29;18.93;;;17.03;;
870;SDS011;422;51.280;7.236;2022-08-19T03:52:56;18.07;;;16.40;;
870;SDS011;422;51.280;7.236;2022-08-19T03:55:26;18.50;;;16.70;;
870;SDS011;422;51.280;7.236;2022-08-19T03:57:55;17.57;;;15.77;;
870;SDS011;422;51.280;7.236;2022-08-19T04:00:25;19.60;;;17.80;;
870;SDS011;422;51.280;7.236;2022-08-19T04:02:52;19.87;;;17.97;;
870;SDS011;422;51.280;7.236;2022-08-19T04:05:20;19.03;;;17.10;;
870;SDS011;422;51.280;7.236;2022-08-19T04:07:47;18.30;;;16.70;;
870;SDS011;422;51.280;7.236;2022-08-19T04:10:14;19.40;;;17.70;;
870;SDS011;422;51.280;7.236;2022-08-19T04:12:49;16.70;;;15.10;;
870;SDS011;422;51.280;7.236;2022-08-19T04:15:19;17.73;;;16.03;;
870;SDS011;422;51.280;7.236;2022-08-19T04:17:47;18.43;;;16.73;;
870;SDS011;422;51.280;7.236;2022-08-19T04:20:14;18.20;;;16.40;;
870;SDS011;422;51.280;7.236;2022-08-19T04:22:42;17.83;;;16.13;;
870;SDS011;422;51.280;7.236;2022-08-19T04:25:09;19.10;;;17.40;;
870;SDS011;422;51.280;7.236;2022-08-19T04:27:37;20.80;;;18.73;;
870;SDS011;422;51.280;7.236;2022-08-19T04:30:06;18.47;;;16.77;;
870;SDS011;422;51.280;7.236;2022-08-19T04:32:36;19.40;;;17.60;;
870;SDS011;422;51.280;7.236;2022-08-19T04:35:06;19.30;;;17.50;;
870;SDS011;422;51.280;7.236;2022-08-19T04:37:34;19.63;;;17.73;;
870;SDS011;422;51.280;7.236;2022-08-19T04:40:03;19.47;;;17.60;;
870;SDS011;422;51.280;7.236;2022-08-19T04:42:49;18.23;;;16.53;;
870;SDS011;422;51.280;7.236;2022-08-19T04:45:19;18.53;;;16.73;;
870;SDS011;422;51.280;7.236;2022-08-19T04:47:55;19.80;;;17.23;;
870;SDS011;422;51.280;7.236;2022-08-19T04:50:23;17.97;;;16.27;;
870;SDS011;422;51.280;7.236;2022-08-19T04:52:51;20.60;;;18.57;;
870;SDS011;422;51.280;7.236;2022-08-19T04:55:21;20.40;;;18.50;;
870;SDS011;422;51.280;7.236;2022-08-19T04:57:50;20.00;;;18.10;;
870;SDS011;422;51.280;7.236;2022-08-19T05:00:19;20.40;;;18.30;;
870;SDS011;422;51.280;7.236;2022-08-19T05:02:46;20.90;;;18.83;;
870;SDS011;422;51.280;7.236;2022-08-19T05:05:14;19.67;;;17.87;;
870;SDS011;422;51.280;7.236;2022-08-19T05:07:45;22.03;;;19.83;;
870;SDS011;422;51.280;7.236;2022-08-19T05:10:12;20.03;;;18.13;;
870;SDS011;422;51.280;7.236;2022-08-19T05:12:42;20.10;;;18.00;;
870;SDS011;422;51.280;7.236;2022-08-19T05:15:10;19.60;;;17.63;;
870;SDS011;422;51.280;7.236;2022-08-19T05:17:39;19.77;;;17.93;;
870;SDS011;422;51.280;7.236;2022-08-19T05:20:27;18.83;;;17.13;;
870;SDS011;422;51.280;7.236;2022-08-19T05:23:29;19.23;;;17.37;;
870;SDS011;422;51.280;7.236;2022-08-19T05:25:59;20.00;;;18.10;;
870;SDS011;422;51.280;7.236;2022-08-19T05:28:26;18.53;;;16.63;;
870;SDS011;422;51.280;7.236;2022-08-19T05:30:54;19.27;;;17.43;;
870;SDS011;422;51.280;7.236;2022-08-19T05:33:28;20.80;;;16.53;;
870;SDS011;422;51.280;7.236;2022-08-19T05:35:56;19.00;;;17.10;;
870;SDS011;422;51.280;7.236;2022-08-19T05:38:24;19.23;;;16.53;;
870;SDS011;422;51.280;7.236;2022-08-19T05:40:52;18.63;;;16.63;;
870;SDS011;422;51.280;7.236;2022-08-19T05:43:19;18.67;;;16.87;;
870;SDS011;422;51.280;7.236;2022-08-19T05:45:48;17.20;;;15.60;;
870;SDS011;422;51.280;7.236;2022-08-19T05:48:15;19.10;;;17.30;;
870;SDS011;422;51.280;7.236;2022-08-19T05:50:47;16.70;;;15.30;;
870;SDS011;422;51.280;7.236;2022-08-19T05:53:15;17.80;;;16.10;;
870;SDS011;422;51.280;7.236;2022-08-19T05:55:42;21.63;;;17.90;;
870;SDS011;422;51.280;7.236;2022-08-19T05:58:10;19.93;;;18.03;;
870;SDS011;422;51.280;7.236;2022-08-19T06:00:38;19.80;;;17.80;;
870;SDS011;422;51.280;7.236;2022-08-19T06:03:06;18.00;;;16.30;;
870;SDS011;422;51.280;7.236;2022-08-19T06:05:33;19.40;;;17.50;;
870;SDS011;422;51.280;7.236;2022-08-19T06:08:02;18.37;;;16.47;;
870;SDS011;422;51.280;7.236;2022-08-19T06:10:30;18.20;;;16.33;;
870;SDS011;422;51.280;7.236;2022-08-19T06:12:57;19.80;;;17.70;;
870;SDS011;422;51.280;7.236;2022-08-19T06:15:26;18.87;;;17.03;;
870;SDS011;422;51.280;7.236;2022-08-19T06:17:53;20.53;;;18.37;;
870;SDS011;422;51.280;7.236;2022-08-19T06:20:21;18.80;;;17.10;;
870;SDS011;422;51.280;7.236;2022-08-19T06:22:49;19.50;;;17.63;;
870;SDS011;422;51.280;7.236;2022-08-19T06:25:18;20.17;;;18.20;;
870;SDS011;422;51.280;7.236;2022-08-19T06:27:45;20.10;;;18.20;;
870;SDS011;422;51.280;7.236;2022-08-19T06:30:15;19.67;;;17.87;;
870;SDS011;422;51.280;7.236;2022-08-19T06:32:45;20.10;;;18.10;;
870;SDS011;422;51.280;7.236;2022-08-19T06:35:15;19.40;;;17.60;;
870;SDS011;422;51.280;7.236;2022-08-19T06:37:43;18.60;;;16.80;;
870;SDS011;422;51.280;7.236;2022-08-19T06:40:13;17.97;;;16.17;;
870;SDS011;422;51.280;7.236;2022-08-19T06:42:42;18.63;;;16.93;;
870;SDS011;422;51.280;7.236;2022-08-19T06:45:10;17.33;;;15.80;;
870;SDS011;422;51.280;7.236;2022-08-19T06:47:37;18.10;;;16.50;;
870;SDS011;422;51.280;7.236;2022-08-19T06:50:13;19.07;;;17.07;;
870;SDS011;422;51.280;7.236;2022-08-19T06:52:40;19.30;;;17.23;;
870;SDS011;422;51.280;7.236;2022-08-19T06:55:08;20.13;;;18.10;;
870;SDS011;422;51.280;7.236;2022-08-19T06:57:35;18.90;;;17.10;;
870;SDS011;422;51.280;7.236;2022-08-19T07:00:05;19.33;;;17.40;;
870;SDS011;422;51.280;7.236;2022-08-19T07:02:36;23.90;;;21.40;;
870;SDS011;422;51.280;7.236;2022-08-19T07:05:04;21.87;;;19.87;;
870;SDS011;422;51.280;7.236;2022-08-19T07:07:35;20.73;;;18.67;;
870;SDS011;422;51.280;7.236;2022-08-19T07:10:08;23.70;;;21.40;;
870;SDS011;422;51.280;7.236;2022-08-19T07:12:36;23.97;;;21.60;;
870;SDS011;422;51.280;7.236;2022-08-19T07:15:08;22.10;;;20.03;;
870;SDS011;422;51.280;7.236;2022-08-19T07:17:37;23.73;;;21.43;;
870;SDS011;422;51.280;7.236;2022-08-19T07:20:09;26.73;;;24.23;;
870;SDS011;422;51.280;7.236;2022-08-19T07:22:37;23.50;;;21.37;;
870;SDS011;422;51.280;7.236;2022-08-19T07:25:05;25.23;;;22.53;;
870;SDS011;422;51.280;7.236;2022-08-19T07:27:34;24.43;;;21.97;;
870;SDS011;422;51.280;7.236;2022-08-19T07:30:02;25.57;;;23.17;;
870;SDS011;422;51.280;7.236;2022-08-19T07:32:33;23.63;;;21.23;;
870;SDS011;422;51.280;7.236;2022-08-19T07:35:02;25.30;;;22.80;;
870;SDS011;422;51.280;7.236;2022-08-19T07:37:31;22.70;;;20.63;;
870;SDS011;422;51.280;7.236;2022-08-19T07:40:02;27.37;;;24.53;;
870;SDS011;422;51.280;7.236;2022-08-19T07:42:33;26.43;;;23.67;;
870;SDS011;422;51.280;7.236;2022-08-19T07:45:00;28.70;;;25.67;;
870;SDS011;422;51.280;7.236;2022-08-19T07:47:28;28.53;;;25.70;;
870;SDS011;422;51.280;7.236;2022-08-19T07:49:56;28.27;;;25.67;;
870;SDS011;422;51.280;7.236;2022-08-19T07:52:25;27.77;;;25.07;;
870;SDS011;422;51.280;7.236;2022-08-19T07:54:53;27.07;;;24.50;;
870;SDS011;422;51.280;7.236;2022-08-19T07:57:21;27.97;;;25.27;;
870;SDS011;422;51.280;7.236;2022-08-19T07:59:48;28.63;;;25.80;;
870;SDS011;422;51.280;7.236;2022-08-19T08:02:16;27.43;;;24.93;;
870;SDS011;422;51.280;7.236;2022-08-19T08:04:47;26.77;;;24.10;;
870;SDS011;422;51.280;7.236;2022-08-19T08:07:32;27.93;;;25.40;;
870;SDS011;422;51.280;7.236;2022-08-19T08:10:23;26.80;;;24.20;;
870;SDS011;422;51.280;7.236;2022-08-19T08:12:51;26.77;;;24.13;;
870;SDS011;422;51.280;7.236;2022-08-19T08:15:20;27.70;;;25.10;;
870;SDS011;422;51.280;7.236;2022-08-19T08:17:48;27.77;;;25.10;;
870;SDS011;422;51.280;7.236;2022-08-19T08:20:17;29.00;;;26.17;;
870;SDS011;422;51.280;7.236;2022-08-19T08:22:48;28.50;;;25.80;;
870;SDS011;422;51.280;7.236;2022-08-19T08:25:33;28.70;;;25.87;;
870;SDS011;422;51.280;7.236;2022-08-19T08:28:03;35.13;;;31.77;;
870;SDS011;422;51.280;7.236;2022-08-19T08:30:32;35.03;;;31.57;;
870;SDS011;422;51.280;7.236;2022-08-19T08:33:04;32.90;;;29.67;;
870;SDS011;422;51.280;7.236;2022-08-19T08:35:32;31.03;;;28.13;;
870;SDS011;422;51.280;7.236;2022-08-19T08:38:00;31.77;;;28.87;;
870;SDS011;422;51.280;7.236;2022-08-19T08:40:38;34.47;;;31.13;;
870;SDS011;422;51.280;7.236;2022-08-19T08:43:20;36.97;;;33.17;;
870;SDS011;422;51.280;7.236;2022-08-19T08:45:52;35.67;;;32.27;;
870;SDS011;422;51.280;7.236;2022-08-19T08:48:24;35.47;;;32.07;;
870;SDS011;422;51.280;7.236;2022-08-19T08:53:47;45.53;;;41.33;;
870;SDS011;422;51.280;7.236;2022-08-19T08:56:17;52.93;;;47.93;;
870;SDS011;422;51.280;7.236;2022-08-19T08:58:46;54.67;;;49.37;;
870;SDS011;422;51.280;7.236;2022-08-19T09:01:22;52.47;;;47.57;;
870;SDS011;422;51.280;7.236;2022-08-19T09:03:51;46.20;;;41.90;;
870;SDS011;422;51.280;7.236;2022-08-19T09:06:21;45.97;;;41.37;;
870;SDS011;422;51.280;7.236;2022-08-19T09:09:01;44.97;;;40.37;;
870;SDS011;422;51.280;7.236;2022-08-19T09:11:35;45.23;;;40.83;;
870;SDS011;422;51.280;7.236;2022-08-19T09:14:19;41.80;;;38.03;;
870;SDS011;422;51.280;7.236;2022-08-19T09:17:00;39.77;;;35.93;;
870;SDS011;422;51.280;7.236;2022-08-19T09:19:33;39.27;;;35.67;;
870;SDS011;422;51.280;7.236;2022-08-19T09:22:03;36.03;;;32.83;;
870;SDS011;422;51.280;7.236;2022-08-19T09:24:33;34.77;;;31.47;;
870;SDS011;422;51.280;7.236;2022-08-19T09:27:01;28.70;;;26.00;;
870;SDS011;422;51.280;7.236;2022-08-19T09:29:29;27.57;;;25.10;;
870;SDS011;422;51.280;7.236;2022-08-19T09:31:56;21.77;;;19.80;;
870;SDS011;422;51.280;7.236;2022-08-19T09:34:24;26.33;;;23.97;;
870;SDS011;422;51.280;7.236;2022-08-19T09:36:54;25.50;;;23.13;;
870;SDS011;422;51.280;7.236;2022-08-19T09:39:26;23.87;;;21.43;;
870;SDS011;422;51.280;7.236;2022-08-19T09:42:01;25.67;;;23.47;;
870;SDS011;422;51.280;7.236;2022-08-19T09:44:29;26.60;;;24.10;;
870;SDS011;422;51.280;7.236;2022-08-19T09:47:02;23.37;;;21.30;;
870;SDS011;422;51.280;7.236;2022-08-19T09:49:29;24.97;;;22.77;;
870;SDS011;422;51.280;7.236;2022-08-19T09:51:57;23.60;;;21.70;;
870;SDS011;422;51.280;7.236;2022-08-19T09:54:25;24.60;;;22.40;;
870;SDS011;422;51.280;7.236;2022-08-19T09:56:54;22.33;;;20.43;;
870;SDS011;422;51.280;7.236;2022-08-19T09:59:28;20.93;;;19.13;;
870;SDS011;422;51.280;7.236;2022-08-19T10:01:58;21.17;;;19.27;;
870;SDS011;422;51.280;7.236;2022-08-19T10:04:33;21.83;;;19.73;;
870;SDS011;422;51.280;7.236;2022-08-19T10:07:19;21.30;;;19.23;;
870;SDS011;422;51.280;7.236;2022-08-19T10:09:48;20.70;;;19.00;;
870;SDS011;422;51.280;7.236;2022-08-19T10:12:17;20.77;;;18.87;;
870;SDS011;422;51.280;7.236;2022-08-19T10:14:46;19.90;;;18.10;;
870;SDS011;422;51.280;7.236;2022-08-19T10:17:18;16.17;;;14.67;;
870;SDS011;422;51.280;7.236;2022-08-19T10:19:45;19.17;;;17.57;;
870;SDS011;422;51.280;7.236;2022-08-19T10:22:15;19.50;;;17.90;;
870;SDS011;422;51.280;7.236;2022-08-19T10:24:46;19.10;;;17.57;;
870;SDS011;422;51.280;7.236;2022-08-19T10:27:18;19.43;;;17.83;;
870;SDS011;422;51.280;7.236;2022-08-19T10:29:45;20.57;;;18.70;;
870;SDS011;422;51.280;7.236;2022-08-19T10:32:13;22.10;;;20.20;;
870;SDS011;422;51.280;7.236;2022-08-19T10:34:43;22.40;;;20.27;;
870;SDS011;422;51.280;7.236;2022-08-19T10:37:14;22.50;;;20.40;;
870;SDS011;422;51.280;7.236;2022-08-19T10:39:45;20.17;;;18.47;;
870;SDS011;422;51.280;7.236;2022-08-19T10:42:15;23.80;;;21.50;;
870;SDS011;422;51.280;7.236;2022-08-19T10:44:43;20.13;;;18.23;;
870;SDS011;422;51.280;7.236;2022-08-19T10:47:13;21.03;;;18.93;;
870;SDS011;422;51.280;7.236;2022-08-19T10:49:43;21.20;;;18.97;;
870;SDS011;422;51.280;7.236;2022-08-19T10:52:28;17.77;;;16.27;;
870;SDS011;422;51.280;7.236;2022-08-19T10:55:08;20.23;;;18.43;;
870;SDS011;422;51.280;7.236;2022-08-19T10:57:56;19.70;;;18.20;;
870;SDS011;422;51.280;7.236;2022-08-19T11:00:27;20.20;;;18.40;;
870;SDS011;422;51.280;7.236;2022-08-19T11:02:55;17.20;;;15.77;;
870;SDS011;422;51.280;7.236;2022-08-19T11:05:25;18.27;;;16.67;;
870;SDS011;422;51.280;7.236;2022-08-19T11:07:53;15.60;;;14.30;;
870;SDS011;422;51.280;7.236;2022-08-19T11:10:20;18.70;;;17.10;;
870;SDS011;422;51.280;7.236;2022-08-19T11:12:48;20.30;;;18.50;;
870;SDS011;422;51.280;7.236;2022-08-19T11:15:19;22.90;;;20.70;;
870;SDS011;422;51.280;7.236;2022-08-19T11:17:46;17.67;;;16.00;;
870;SDS011;422;51.280;7.236;2022-08-19T11:20:14;17.80;;;16.30;;
870;SDS011;422;51.280;7.236;2022-08-19T11:22:41;17.70;;;16.20;;
870;SDS011;422;51.280;7.236;2022-08-19T11:25:09;20.03;;;18.23;;
870;SDS011;422;51.280;7.236;2022-08-19T11:27:38;16.57;;;15.03;;
870;SDS011;422;51.280;7.236;2022-08-19T11:30:08;17.33;;;15.90;;
870;SDS011;422;51.280;7.236;2022-08-19T11:32:42;21.23;;;19.30;;
870;SDS011;422;51.280;7.236;2022-08-19T11:35:09;19.47;;;17.33;;
870;SDS011;422;51.280;7.236;2022-08-19T11:37:40;18.40;;;16.70;;
870;SDS011;422;51.280;7.236;2022-08-19T11:40:13;20.80;;;19.00;;
870;SDS011;422;51.280;7.236;2022-08-19T11:42:44;20.40;;;18.33;;
870;SDS011;422;51.280;7.236;2022-08-19T11:45:28;19.43;;;17.93;;
870;SDS011;422;51.280;7.236;2022-08-19T11:48:00;18.47;;;17.07;;
870;SDS011;422;51.280;7.236;2022-08-19T11:50:28;10.27;;;9.27;;
870;SDS011;422;51.280;7.236;2022-08-19T11:52:57;12.33;;;11.27;;
870;SDS011;422;51.280;7.236;2022-08-19T11:55:27;11.63;;;10.50;;
870;SDS011;422;51.280;7.236;2022-08-19T11:57:54;11.30;;;10.50;;
870;SDS011;422;51.280;7.236;2022-08-19T12:00:22;15.60;;;14.23;;
870;SDS011;422;51.280;7.236;2022-08-19T12:02:49;16.87;;;15.47;;
870;SDS011;422;51.280;7.236;2022-08-19T12:05:18;15.60;;;14.30;;
870;SDS011;422;51.280;7.236;2022-08-19T12:07:46;15.93;;;14.63;;
870;SDS011;422;51.280;7.236;2022-08-19T12:10:16;19.50;;;17.60;;
870;SDS011;422;51.280;7.236;2022-08-19T12:12:44;19.07;;;17.47;;
870;SDS011;422;51.280;7.236;2022-08-19T12:15:11;16.87;;;15.53;;
870;SDS011;422;51.280;7.236;2022-08-19T12:17:42;12.87;;;11.57;;
870;SDS011;422;51.280;7.236;2022-08-19T12:20:14;13.57;;;12.37;;
870;SDS011;422;51.280;7.236;2022-08-19T12:22:46;10.47;;;9.67;;
870;SDS011;422;51.280;7.236;2022-08-19T12:25:14;13.47;;;12.33;;
870;SDS011;422;51.280;7.236;2022-08-19T12:27:45;12.33;;;11.50;;
870;SDS011;422;51.280;7.236;2022-08-19T12:30:17;12.10;;;11.00;;
870;SDS011;422;51.280;7.236;2022-08-19T12:32:46;12.90;;;11.80;;
870;SDS011;422;51.280;7.236;2022-08-19T12:35:17;13.30;;;12.23;;
870;SDS011;422;51.280;7.236;2022-08-19T12:37:47;12.90;;;11.70;;
870;SDS011;422;51.280;7.236;2022-08-19T12:40:15;12.97;;;11.80;;
870;SDS011;422;51.280;7.236;2022-08-19T12:42:46;11.90;;;10.90;;
870;SDS011;422;51.280;7.236;2022-08-19T12:45:16;11.83;;;10.93;;
870;SDS011;422;51.280;7.236;2022-08-19T12:47:44;9.50;;;8.70;;
870;SDS011;422;51.280;7.236;2022-08-19T12:50:12;10.20;;;9.30;;
870;SDS011;422;51.280;7.236;2022-08-19T12:52:40;10.90;;;9.97;;
870;SDS011;422;51.280;7.236;2022-08-19T12:55:13;8.40;;;7.60;;
870;SDS011;422;51.280;7.236;2022-08-19T12:57:41;8.40;;;7.70;;
870;SDS011;422;51.280;7.236;2022-08-19T13:00:12;7.63;;;6.93;;
870;SDS011;422;51.280;7.236;2022-08-19T13:02:46;6.60;;;6.07;;
870;SDS011;422;51.280;7.236;2022-08-19T13:05:16;6.20;;;5.80;;
870;SDS011;422;51.280;7.236;2022-08-19T13:07:48;7.30;;;6.67;;
870;SDS011;422;51.280;7.236;2022-08-19T13:10:19;8.10;;;7.40;;
870;SDS011;422;51.280;7.236;2022-08-19T13:12:48;8.13;;;7.33;;
870;SDS011;422;51.280;7.236;2022-08-19T13:15:20;9.77;;;9.07;;
870;SDS011;422;51.280;7.236;2022-08-19T13:17:57;8.90;;;8.20;;
870;SDS011;422;51.280;7.236;2022-08-19T13:20:24;7.93;;;7.33;;
870;SDS011;422;51.280;7.236;2022-08-19T13:22:52;9.50;;;8.70;;
870;SDS011;422;51.280;7.236;2022-08-19T13:25:29;8.60;;;8.00;;
870;SDS011;422;51.280;7.236;2022-08-19T13:27:58;8.80;;;8.20;;
870;SDS011;422;51.280;7.236;2022-08-19T13:30:31;8.77;;;7.70;;
870;SDS011;422;51.280;7.236;2022-08-19T13:33:16;8.40;;;7.60;;
870;SDS011;422;51.280;7.236;2022-08-19T13:35:45;9.37;;;8.67;;
870;SDS011;422;51.280;7.236;2022-08-19T13:38:20;8.57;;;7.77;;
870;SDS011;422;51.280;7.236;2022-08-19T13:40:52;7.27;;;6.77;;
870;SDS011;422;51.280;7.236;2022-08-19T13:43:23;8.13;;;7.40;;
870;SDS011;422;51.280;7.236;2022-08-19T13:45:53;8.53;;;7.73;;
870;SDS011;422;51.280;7.236;2022-08-19T13:48:22;7.67;;;6.97;;
870;SDS011;422;51.280;7.236;2022-08-19T13:50:51;8.87;;;8.13;;
870;SDS011;422;51.280;7.236;2022-08-19T13:53:19;13.77;;;8.10;;
870;SDS011;422;51.280;7.236;2022-08-19T13:55:51;8.33;;;7.53;;
870;SDS011;422;51.280;7.236;2022-08-19T13:58:21;9.07;;;8.20;;
870;SDS011;422;51.280;7.236;2022-08-19T14:00:53;10.10;;;9.20;;
870;SDS011;422;51.280;7.236;2022-08-19T14:03:20;9.43;;;8.53;;
870;SDS011;422;51.280;7.236;2022-08-19T14:05:49;8.33;;;7.50;;
870;SDS011;422;51.280;7.236;2022-08-19T14:08:18;7.73;;;7.23;;
870;SDS011;422;51.280;7.236;2022-08-19T14:10:46;9.17;;;8.03;;
870;SDS011;422;51.280;7.236;2022-08-19T14:13:20;8.37;;;7.77;;
870;SDS011;422;51.280;7.236;2022-08-19T14:15:49;8.13;;;7.53;;
870;SDS011;422;51.280;7.236;2022-08-19T14:18:23;7.00;;;6.40;;
870;SDS011;422;51.280;7.236;2022-08-19T14:20:52;8.63;;;7.93;;
870;SDS011;422;51.280;7.236;2022-08-19T14:23:20;7.30;;;6.70;;
870;SDS011;422;51.280;7.236;2022-08-19T14:25:47;7.60;;;6.90;;
870;SDS011;422;51.280;7.236;2022-08-19T14:28:16;7.97;;;7.33;;
870;SDS011;422;51.280;7.236;2022-08-19T14:30:46;6.70;;;6.20;;
870;SDS011;422;51.280;7.236;2022-08-19T14:33:17;7.90;;;7.30;;
870;SDS011;422;51.280;7.236;2022-08-19T14:35:45;9.90;;;8.33;;
870;SDS011;422;51.280;7.236;2022-08-19T14:38:14;8.23;;;7.63;;
870;SDS011;422;51.280;7.236;2022-08-19T14:40:46;9.30;;;8.13;;
870;SDS011;422;51.280;7.236;2022-08-19T14:43:16;10.27;;;9.00;;
870;SDS011;422;51.280;7.236;2022-08-19T14:45:48;8.37;;;7.67;;
870;SDS011;422;51.280;7.236;2022-08-19T14:48:16;8.50;;;7.20;;
870;SDS011;422;51.280;7.236;2022-08-19T14:50:47;6.90;;;6.40;;
870;SDS011;422;51.280;7.236;2022-08-19T14:53:15;8.20;;;6.73;;
870;SDS011;422;51.280;7.236;2022-08-19T14:55:43;7.23;;;6.67;;
870;SDS011;422;51.280;7.236;2022-08-19T14:58:14;7.37;;;6.20;;
870;SDS011;422;51.280;7.236;2022-08-19T15:00:45;7.53;;;6.73;;
870;SDS011;422;51.280;7.236;2022-08-19T15:03:13;7.40;;;6.03;;
870;SDS011;422;51.280;7.236;2022-08-19T15:05:40;10.27;;;7.47;;
870;SDS011;422;51.280;7.236;2022-08-19T15:08:15;7.43;;;6.73;;
870;SDS011;422;51.280;7.236;2022-08-19T15:10:43;6.93;;;6.40;;
870;SDS011;422;51.280;7.236;2022-08-19T15:13:11;6.37;;;5.90;;
870;SDS011;422;51.280;7.236;2022-08-19T15:15:38;7.07;;;6.33;;
870;SDS011;422;51.280;7.236;2022-08-19T15:18:14;6.10;;;5.70;;
870;SDS011;422;51.280;7.236;2022-08-19T15:20:42;6.60;;;6.00;;
870;SDS011;422;51.280;7.236;2022-08-19T15:23:12;5.90;;;5.40;;
870;SDS011;422;51.280;7.236;2022-08-19T15:25:43;6.00;;;5.50;;
870;SDS011;422;51.280;7.236;2022-08-19T15:28:12;6.47;;;5.50;;
870;SDS011;422;51.280;7.236;2022-08-19T15:30:42;7.43;;;6.53;;
870;SDS011;422;51.280;7.236;2022-08-19T15:33:18;6.30;;;5.73;;
870;SDS011;422;51.280;7.236;2022-08-19T15:35:46;10.17;;;9.27;;
870;SDS011;422;51.280;7.236;2022-08-19T15:38:19;8.20;;;7.60;;
870;SDS011;422;51.280;7.236;2022-08-19T15:40:48;6.53;;;5.93;;